Weather at Mulgathing Airport

Public forecast

Using degrees Celsius for public forecast. Weather courtesy of forecast.io.

Closest aviation weather report (METAR) to Mulgathing Airport

Closest report is Coober Pedy Airport, 81.1 nm (150.1 km) NNE. Retrieved 2021/06/13 17:00 UTC (9 minutes ago):

YCBP 131700Z AUTO 23008KT 9999 // NCD 11/11 Q1012

Closest aviation forecast (TAF) to Mulgathing Airport

Closest forecast is Woomera Airfield, 156.1 nm (289.2 km) ESE. Retrieved 2021/06/13 12:00 UTC (5 hours ago):

TAF YPWR 131120Z 1312/1406 02010KT 9999 -SHRA FEW050 FM131500 02008KT 9999 -SHRA SCT050 FM132300 36008KT 9999 -SHRA FEW015 SCT020 BKN035